Tuesday, March 31, 2015, 1:23 AM EDT

KESN, Easton / Newman Field

Location: Easton, MD, United States Lat: 38.8
Local Time: 1:23 AM EDT ( 5:23 GMT) Lon: -76.067
Time Zone: US/Eastern Elev: 72 ft

Show me the last for .
Show Decoded

2015-03-31 01:12 METAR KESN 310512Z AUTO 00000KT 10SM CLR 07/M01 A2997 RMK AO2 T00711007 =
2015-03-31 01:10 METAR KESN 310512Z AUTO 00000KT 10SM CLR 07/M01 A2997 =
2015-03-31 00:52 METAR KESN 310452Z AUTO 23004KT 10SM CLR 07/M01 A2998 RMK AO2 T00721009 =
2015-03-31 00:26 METAR KESN 310430Z AUTO 00000KT 10SM CLR 06/M01 A2998 =
2015-03-31 00:23 METAR KESN 310430Z AUTO 00000KT 10SM CLR 06/M01 A2998 RMK AO2 T00591009 =
2015-03-31 00:12 METAR KESN 310412Z AUTO 00000KT 10SM CLR 08/M01 A2998 =
2015-03-30 23:52 METAR KESN 310352Z AUTO 23004KT 10SM CLR 06/M01 A2999 RMK AO2 T00601010 =
2015-03-30 23:10 METAR KESN 310312Z AUTO 00000KT 10SM CLR 10/M02 A2999 =
2015-03-30 23:07 METAR KESN 310312Z AUTO 00000KT 10SM CLR 10/M02 A2999 RMK AO2 T01001025 =
2015-03-30 22:52 METAR KESN 310252Z AUTO 36003KT 10SM CLR 10/M02 A2999 RMK AO2 T00991024 =
2015-03-30 22:22 METAR KESN 310232Z AUTO 35004KT 10SM CLR 10/M02 A3000 =
2015-03-30 22:21 METAR KESN 310232Z AUTO 35004KT 10SM CLR 10/M02 A3000 RMK AO2 T01021022 =
2015-03-30 22:12 METAR KESN 310212Z AUTO 35005KT 10SM CLR 11/M02 A2999 =
2015-03-30 22:07 METAR KESN 310212Z AUTO 35005KT 10SM CLR 11/M02 A2999 RMK AO2 T01061020 =
2015-03-30 20:53 METAR KESN 310053Z 33004KT 10SM SKC 10/M02 A2997 =
2015-03-30 19:53 METAR KESN 302353Z 30004KT 10SM FEW060 12/M02 A2992 =
2015-03-30 18:53 METAR KESN 302253Z 31006G14KT 10SM FEW060 14/M01 A2990 =
2015-03-30 17:50 METAR KESN 302150Z 31010KT 10SM SCT050 16/M01 A2988 =
2015-03-30 16:50 METAR KESN 302050Z 32012G17KT 10SM SCT050 17/00 A2988 =
2015-03-30 15:50 METAR KESN 301950Z 31010G18KT 10SM SCT050 16/00 A2988 =
2015-03-30 14:50 METAR KESN 301850Z 29008KT 10SM SCT050 15/01 A2990 =
2015-03-30 13:50 METAR KESN 301750Z 26006KT 10SM SCT050 14/01 A2992 =
2015-03-30 12:50 METAR KESN 301650Z 24010KT 10SM SCT050 12/00 A2993 =
2015-03-30 10:50 METAR KESN 301450Z 22014G22KT 10SM SCT050 09/00 A2997 =
2015-03-30 09:58 METAR KESN 301358Z 22014KT 10SM OVC050 08/00 A2997 =
2015-03-30 06:55 METAR KESN 301055Z 20008KT 7SM -RA SCT012 SCT017 BKN035 04/02 A3001 =
2015-03-30 05:52 METAR KESN 300952Z AUTO 25012G25KT 7SM -RA SCT008 SCT012 BKN017 05/00 A3006 RMK
                 AO2 T00450002 =
2015-03-30 05:50 METAR KESN 300950Z COR 23011G20KT 5SM RA SCT006 BKN012 OVC017 04/01 A3004 =
2015-03-30 05:22 METAR KESN 300930Z AUTO 23011KT 10SM CLR 06/M02 A3005 =
2015-03-30 05:22 METAR KESN 300930Z AUTO 23011KT 10SM CLR 06/M02 A3005 RMK AO2 T00611023 =
2015-03-30 05:10 METAR KESN 300910Z AUTO 21011G16KT 10SM CLR 06/M02 A3005 RMK AO2 T00621025 =
2015-03-30 04:50 METAR KESN 300850Z AUTO 20010G15KT 10SM CLR 06/M02 A3005 RMK AO2 T00601018 =
2015-03-30 04:22 METAR KESN 300830Z AUTO 19008KT 10SM CLR 06/M01 A3007 =
2015-03-30 04:16 METAR KESN 300830Z AUTO 19008KT 10SM CLR 06/M01 A3007 RMK AO2 T00571011 =
2015-03-30 04:10 METAR KESN 300810Z AUTO 19005KT 10SM CLR 06/M01 A3008 =
2015-03-30 04:01 METAR KESN 300810Z AUTO 19005KT 10SM CLR 06/M01 A3008 RMK AO2 T00551006 =
2015-03-30 03:50 METAR KESN 300750Z AUTO 19007KT 10SM SCT040 SCT047 06/M01 A3009 RMK AO2
                 T00571010 =
2015-03-30 03:23 METAR KESN 300730Z AUTO 19008KT 10SM SCT042 06/M01 A3010 =
2015-03-30 03:16 METAR KESN 300730Z AUTO 19008KT 10SM SCT042 06/M01 A3010 RMK AO2 T00581009 =
2015-03-30 03:08 METAR KESN 300710Z AUTO 21010KT 10SM CLR 06/M01 A3013 =
2015-03-30 03:03 METAR KESN 300710Z AUTO 21010KT 10SM CLR 06/M01 A3013 RMK AO2 T00561007 =
2015-03-30 02:49 METAR KESN 300649Z AUTO 21010KT 10SM CLR 05/M01 A3012 RMK AO2 T00521007 =
2015-03-30 02:24 METAR KESN 300629Z AUTO 20010KT 10SM CLR 05/M01 A3014 =
2015-03-30 02:21 METAR KESN 300629Z AUTO 20010KT 10SM CLR 05/M01 A3014 RMK AO2 T00501013 =
2015-03-30 02:09 METAR KESN 300609Z AUTO 20009KT 10SM CLR 05/M02 A3015 =
2015-03-30 02:02 METAR KESN 300609Z AUTO 20009KT 10SM CLR 05/M02 A3015 RMK AO2 T00471019 =
2015-03-30 01:49 METAR KESN 300549Z AUTO 19008KT 10SM CLR 05/M03 A3015 =
2015-03-30 01:24 METAR KESN 300529Z AUTO 20009KT 10SM CLR 05/M03 A3016 =

Support USWX by starting your Amazon purchase here.